Amantha, North Carolina
Current Conditions -  °F | °C
As of 5:35 AM on Friday 21 Nov 2014 (Local Time) from KTNB Reporting Station
Clear Clear  
Wind Chill: -10°   Ceiling: Unl
Heat Index: -2°   Visibility: 10mi
Dew Point: -11°   Wind: 23mph
Humidity: 54%   Direction: 290°WNW
Pressure: 30.17"   Gusts: 36mph
Location:  36.2666°N, 81.8431°W
Report Text: KTNB 211035Z AUTO 29020G31KT 10SM CLR M02/M10 A3017 RMK AO2 T10231105
Loading
Personal Weather Stations






























Interactive Weather Map New forecast layout! Learn more

10-Day Weather Forecast

Advertisements
Track Severe Weather on mobile